sensor_id;sensor_type;location;lat;lon;timestamp;P1;durP1;ratioP1;P2;durP2;ratioP2
34876;SDS011;21086;44.780;17.194;2024-03-25T00:00:38;19.52;;;10.60;;
34876;SDS011;21086;44.780;17.194;2024-03-25T00:03:04;19.48;;;9.77;;
34876;SDS011;21086;44.780;17.194;2024-03-25T00:05:30;15.38;;;9.18;;
34876;SDS011;21086;44.780;17.194;2024-03-25T00:07:57;15.45;;;8.77;;
34876;SDS011;21086;44.780;17.194;2024-03-25T00:10:24;13.32;;;8.10;;
34876;SDS011;21086;44.780;17.194;2024-03-25T00:12:50;15.43;;;8.50;;
34876;SDS011;21086;44.780;17.194;2024-03-25T00:15:20;19.27;;;9.90;;
34876;SDS011;21086;44.780;17.194;2024-03-25T00:17:46;16.92;;;9.57;;
34876;SDS011;21086;44.780;17.194;2024-03-25T00:20:13;14.65;;;6.35;;
34876;SDS011;21086;44.780;17.194;2024-03-25T00:22:40;9.55;;;6.07;;
34876;SDS011;21086;44.780;17.194;2024-03-25T00:25:07;12.43;;;8.07;;
34876;SDS011;21086;44.780;17.194;2024-03-25T00:27:34;15.93;;;7.82;;
34876;SDS011;21086;44.780;17.194;2024-03-25T00:30:00;13.13;;;7.60;;
34876;SDS011;21086;44.780;17.194;2024-03-25T00:32:26;10.07;;;6.38;;
34876;SDS011;21086;44.780;17.194;2024-03-25T00:34:52;11.93;;;6.47;;
34876;SDS011;21086;44.780;17.194;2024-03-25T00:37:18;10.40;;;5.35;;
34876;SDS011;21086;44.780;17.194;2024-03-25T00:39:44;9.82;;;5.53;;
34876;SDS011;21086;44.780;17.194;2024-03-25T00:42:10;11.27;;;5.75;;
34876;SDS011;21086;44.780;17.194;2024-03-25T00:44:37;9.25;;;5.22;;
34876;SDS011;21086;44.780;17.194;2024-03-25T00:47:03;10.15;;;5.43;;
34876;SDS011;21086;44.780;17.194;2024-03-25T00:49:29;8.52;;;5.20;;
34876;SDS011;21086;44.780;17.194;2024-03-25T00:51:55;9.32;;;5.80;;
34876;SDS011;21086;44.780;17.194;2024-03-25T00:54:21;10.70;;;5.60;;
34876;SDS011;21086;44.780;17.194;2024-03-25T00:56:48;13.05;;;7.10;;
34876;SDS011;21086;44.780;17.194;2024-03-25T00:59:16;13.73;;;7.45;;
34876;SDS011;21086;44.780;17.194;2024-03-25T01:01:43;13.52;;;7.60;;
34876;SDS011;21086;44.780;17.194;2024-03-25T01:04:09;12.60;;;6.75;;
34876;SDS011;21086;44.780;17.194;2024-03-25T01:06:35;11.27;;;6.15;;
34876;SDS011;21086;44.780;17.194;2024-03-25T01:09:01;9.13;;;4.90;;
34876;SDS011;21086;44.780;17.194;2024-03-25T01:11:27;7.88;;;4.43;;
34876;SDS011;21086;44.780;17.194;2024-03-25T01:13:53;9.48;;;4.45;;
34876;SDS011;21086;44.780;17.194;2024-03-25T01:16:19;5.63;;;3.28;;
34876;SDS011;21086;44.780;17.194;2024-03-25T01:18:45;5.85;;;2.88;;
34876;SDS011;21086;44.780;17.194;2024-03-25T01:21:11;3.97;;;2.60;;
34876;SDS011;21086;44.780;17.194;2024-03-25T01:23:37;6.03;;;3.08;;
34876;SDS011;21086;44.780;17.194;2024-03-25T01:26:02;5.97;;;3.50;;
34876;SDS011;21086;44.780;17.194;2024-03-25T01:28:29;5.68;;;3.80;;
34876;SDS011;21086;44.780;17.194;2024-03-25T01:30:55;10.45;;;4.28;;
34876;SDS011;21086;44.780;17.194;2024-03-25T01:33:20;7.50;;;4.70;;
34876;SDS011;21086;44.780;17.194;2024-03-25T01:35:46;9.88;;;4.30;;
34876;SDS011;21086;44.780;17.194;2024-03-25T01:38:13;9.30;;;4.88;;
34876;SDS011;21086;44.780;17.194;2024-03-25T01:40:39;9.52;;;5.32;;
34876;SDS011;21086;44.780;17.194;2024-03-25T01:43:05;8.65;;;5.15;;
34876;SDS011;21086;44.780;17.194;2024-03-25T01:45:34;9.60;;;5.50;;
34876;SDS011;21086;44.780;17.194;2024-03-25T01:48:01;8.80;;;4.75;;
34876;SDS011;21086;44.780;17.194;2024-03-25T01:50:30;9.65;;;5.60;;
34876;SDS011;21086;44.780;17.194;2024-03-25T01:53:01;10.65;;;5.72;;
34876;SDS011;21086;44.780;17.194;2024-03-25T01:55:28;12.90;;;6.82;;
34876;SDS011;21086;44.780;17.194;2024-03-25T01:57:56;9.73;;;5.55;;
34876;SDS011;21086;44.780;17.194;2024-03-25T02:00:22;10.40;;;5.35;;
34876;SDS011;21086;44.780;17.194;2024-03-25T02:02:51;7.57;;;4.68;;
34876;SDS011;21086;44.780;17.194;2024-03-25T02:05:18;8.63;;;4.50;;
34876;SDS011;21086;44.780;17.194;2024-03-25T02:07:44;9.70;;;4.80;;
34876;SDS011;21086;44.780;17.194;2024-03-25T02:10:12;5.88;;;3.80;;
34876;SDS011;21086;44.780;17.194;2024-03-25T02:12:45;10.30;;;4.75;;
34876;SDS011;21086;44.780;17.194;2024-03-25T02:15:11;12.32;;;5.28;;
34876;SDS011;21086;44.780;17.194;2024-03-25T02:17:41;10.48;;;5.13;;
34876;SDS011;21086;44.780;17.194;2024-03-25T02:20:07;9.57;;;5.55;;
34876;SDS011;21086;44.780;17.194;2024-03-25T02:22:34;9.35;;;4.85;;
34876;SDS011;21086;44.780;17.194;2024-03-25T02:25:02;8.93;;;5.28;;
34876;SDS011;21086;44.780;17.194;2024-03-25T02:27:33;9.80;;;5.28;;
34876;SDS011;21086;44.780;17.194;2024-03-25T02:30:07;8.98;;;5.28;;
34876;SDS011;21086;44.780;17.194;2024-03-25T02:32:35;8.98;;;5.55;;
34876;SDS011;21086;44.780;17.194;2024-03-25T02:35:02;10.40;;;5.15;;
34876;SDS011;21086;44.780;17.194;2024-03-25T02:37:30;9.10;;;4.85;;
34876;SDS011;21086;44.780;17.194;2024-03-25T02:39:58;7.90;;;4.60;;
34876;SDS011;21086;44.780;17.194;2024-03-25T02:42:26;9.65;;;4.85;;
34876;SDS011;21086;44.780;17.194;2024-03-25T02:44:53;8.43;;;3.83;;
34876;SDS011;21086;44.780;17.194;2024-03-25T02:47:20;8.32;;;4.38;;
34876;SDS011;21086;44.780;17.194;2024-03-25T02:49:46;6.15;;;4.32;;
34876;SDS011;21086;44.780;17.194;2024-03-25T02:52:12;6.97;;;4.45;;
34876;SDS011;21086;44.780;17.194;2024-03-25T02:54:38;8.90;;;4.10;;
34876;SDS011;21086;44.780;17.194;2024-03-25T02:57:04;6.93;;;3.80;;
34876;SDS011;21086;44.780;17.194;2024-03-25T02:59:30;7.68;;;3.75;;
34876;SDS011;21086;44.780;17.194;2024-03-25T03:01:56;6.40;;;4.13;;
34876;SDS011;21086;44.780;17.194;2024-03-25T03:04:22;6.35;;;4.00;;
34876;SDS011;21086;44.780;17.194;2024-03-25T03:06:48;6.13;;;3.78;;
34876;SDS011;21086;44.780;17.194;2024-03-25T03:09:14;6.85;;;3.70;;
34876;SDS011;21086;44.780;17.194;2024-03-25T03:11:41;5.53;;;3.60;;
34876;SDS011;21086;44.780;17.194;2024-03-25T03:14:07;6.47;;;3.20;;
34876;SDS011;21086;44.780;17.194;2024-03-25T03:16:33;8.20;;;2.63;;
34876;SDS011;21086;44.780;17.194;2024-03-25T03:18:59;5.10;;;3.05;;
34876;SDS011;21086;44.780;17.194;2024-03-25T03:21:25;5.18;;;2.60;;
34876;SDS011;21086;44.780;17.194;2024-03-25T03:23:51;8.80;;;3.40;;
34876;SDS011;21086;44.780;17.194;2024-03-25T03:26:17;4.82;;;3.10;;
34876;SDS011;21086;44.780;17.194;2024-03-25T03:28:43;4.22;;;2.58;;
34876;SDS011;21086;44.780;17.194;2024-03-25T03:31:09;3.42;;;2.35;;
34876;SDS011;21086;44.780;17.194;2024-03-25T03:33:35;4.78;;;3.17;;
34876;SDS011;21086;44.780;17.194;2024-03-25T03:36:01;6.97;;;3.90;;
34876;SDS011;21086;44.780;17.194;2024-03-25T03:38:27;6.55;;;4.05;;
34876;SDS011;21086;44.780;17.194;2024-03-25T03:40:59;7.40;;;4.10;;
34876;SDS011;21086;44.780;17.194;2024-03-25T03:43:27;10.05;;;4.07;;
34876;SDS011;21086;44.780;17.194;2024-03-25T03:45:53;6.25;;;4.10;;
34876;SDS011;21086;44.780;17.194;2024-03-25T03:48:19;7.07;;;4.13;;
34876;SDS011;21086;44.780;17.194;2024-03-25T03:50:45;6.72;;;3.88;;
34876;SDS011;21086;44.780;17.194;2024-03-25T03:53:11;5.85;;;3.53;;
34876;SDS011;21086;44.780;17.194;2024-03-25T03:55:37;11.65;;;3.55;;
34876;SDS011;21086;44.780;17.194;2024-03-25T03:58:03;5.75;;;3.80;;
34876;SDS011;21086;44.780;17.194;2024-03-25T04:00:32;7.72;;;4.22;;
34876;SDS011;21086;44.780;17.194;2024-03-25T04:03:00;6.13;;;3.88;;
34876;SDS011;21086;44.780;17.194;2024-03-25T04:05:29;6.93;;;3.80;;
34876;SDS011;21086;44.780;17.194;2024-03-25T04:07:56;8.75;;;4.22;;
34876;SDS011;21086;44.780;17.194;2024-03-25T04:10:22;7.80;;;4.53;;
34876;SDS011;21086;44.780;17.194;2024-03-25T04:12:48;8.32;;;3.70;;
34876;SDS011;21086;44.780;17.194;2024-03-25T04:15:14;10.40;;;4.95;;
34876;SDS011;21086;44.780;17.194;2024-03-25T04:17:46;10.57;;;5.03;;
34876;SDS011;21086;44.780;17.194;2024-03-25T04:20:14;12.20;;;5.75;;
34876;SDS011;21086;44.780;17.194;2024-03-25T04:22:41;11.77;;;5.78;;
34876;SDS011;21086;44.780;17.194;2024-03-25T04:25:08;11.57;;;6.35;;
34876;SDS011;21086;44.780;17.194;2024-03-25T04:27:43;13.93;;;5.75;;
34876;SDS011;21086;44.780;17.194;2024-03-25T04:30:09;13.18;;;5.63;;
34876;SDS011;21086;44.780;17.194;2024-03-25T04:32:37;12.80;;;5.50;;
34876;SDS011;21086;44.780;17.194;2024-03-25T04:35:04;14.73;;;6.00;;
34876;SDS011;21086;44.780;17.194;2024-03-25T04:37:34;11.07;;;5.05;;
34876;SDS011;21086;44.780;17.194;2024-03-25T04:40:01;13.10;;;5.35;;
34876;SDS011;21086;44.780;17.194;2024-03-25T04:42:28;9.15;;;4.18;;
34876;SDS011;21086;44.780;17.194;2024-03-25T04:44:54;7.47;;;3.92;;
34876;SDS011;21086;44.780;17.194;2024-03-25T04:47:20;6.28;;;3.80;;
34876;SDS011;21086;44.780;17.194;2024-03-25T04:49:46;7.43;;;3.88;;
34876;SDS011;21086;44.780;17.194;2024-03-25T04:52:12;8.25;;;4.30;;
34876;SDS011;21086;44.780;17.194;2024-03-25T04:54:39;8.45;;;4.65;;
34876;SDS011;21086;44.780;17.194;2024-03-25T04:57:05;6.15;;;3.03;;
34876;SDS011;21086;44.780;17.194;2024-03-25T04:59:31;8.05;;;4.03;;
34876;SDS011;21086;44.780;17.194;2024-03-25T05:01:59;13.18;;;5.30;;
34876;SDS011;21086;44.780;17.194;2024-03-25T05:04:25;7.22;;;3.65;;
34876;SDS011;21086;44.780;17.194;2024-03-25T05:06:51;9.30;;;4.10;;
34876;SDS011;21086;44.780;17.194;2024-03-25T05:09:17;8.20;;;4.40;;
34876;SDS011;21086;44.780;17.194;2024-03-25T05:11:43;26.23;;;11.00;;
34876;SDS011;21086;44.780;17.194;2024-03-25T05:14:09;21.15;;;9.48;;
34876;SDS011;21086;44.780;17.194;2024-03-25T05:16:35;10.27;;;5.50;;
34876;SDS011;21086;44.780;17.194;2024-03-25T05:19:04;12.95;;;6.07;;
34876;SDS011;21086;44.780;17.194;2024-03-25T05:21:30;11.07;;;6.38;;
34876;SDS011;21086;44.780;17.194;2024-03-25T05:23:57;11.23;;;6.50;;
34876;SDS011;21086;44.780;17.194;2024-03-25T05:26:23;17.55;;;6.97;;
34876;SDS011;21086;44.780;17.194;2024-03-25T05:28:53;14.90;;;8.27;;
34876;SDS011;21086;44.780;17.194;2024-03-25T05:31:22;12.23;;;7.47;;
34876;SDS011;21086;44.780;17.194;2024-03-25T05:33:49;13.88;;;7.82;;
34876;SDS011;21086;44.780;17.194;2024-03-25T05:36:15;16.23;;;9.27;;
34876;SDS011;21086;44.780;17.194;2024-03-25T05:38:42;15.95;;;9.25;;
34876;SDS011;21086;44.780;17.194;2024-03-25T05:41:08;22.10;;;11.50;;
34876;SDS011;21086;44.780;17.194;2024-03-25T05:43:34;17.00;;;10.60;;
34876;SDS011;21086;44.780;17.194;2024-03-25T05:46:01;21.63;;;11.13;;
34876;SDS011;21086;44.780;17.194;2024-03-25T05:48:27;18.65;;;9.02;;
34876;SDS011;21086;44.780;17.194;2024-03-25T05:51:03;10.75;;;6.63;;
34876;SDS011;21086;44.780;17.194;2024-03-25T05:53:40;9.90;;;5.75;;
34876;SDS011;21086;44.780;17.194;2024-03-25T05:56:06;15.82;;;5.90;;
34876;SDS011;21086;44.780;17.194;2024-03-25T05:58:32;13.70;;;6.63;;
34876;SDS011;21086;44.780;17.194;2024-03-25T06:00:58;15.50;;;6.88;;
34876;SDS011;21086;44.780;17.194;2024-03-25T06:03:26;8.95;;;6.00;;
34876;SDS011;21086;44.780;17.194;2024-03-25T06:05:52;13.70;;;6.88;;
34876;SDS011;21086;44.780;17.194;2024-03-25T06:08:18;11.48;;;5.97;;
34876;SDS011;21086;44.780;17.194;2024-03-25T06:10:53;15.05;;;7.90;;
34876;SDS011;21086;44.780;17.194;2024-03-25T06:13:19;13.95;;;7.53;;
34876;SDS011;21086;44.780;17.194;2024-03-25T06:15:45;13.80;;;7.38;;
34876;SDS011;21086;44.780;17.194;2024-03-25T06:18:12;17.30;;;8.77;;
34876;SDS011;21086;44.780;17.194;2024-03-25T06:20:38;13.18;;;8.23;;
34876;SDS011;21086;44.780;17.194;2024-03-25T06:23:04;14.48;;;7.90;;
34876;SDS011;21086;44.780;17.194;2024-03-25T06:25:30;15.02;;;8.20;;
34876;SDS011;21086;44.780;17.194;2024-03-25T06:27:56;21.05;;;10.77;;
34876;SDS011;21086;44.780;17.194;2024-03-25T06:30:22;21.92;;;10.55;;
34876;SDS011;21086;44.780;17.194;2024-03-25T06:33:07;23.65;;;10.90;;
34876;SDS011;21086;44.780;17.194;2024-03-25T06:35:51;19.05;;;10.90;;
34876;SDS011;21086;44.780;17.194;2024-03-25T06:38:19;13.13;;;7.32;;
34876;SDS011;21086;44.780;17.194;2024-03-25T06:40:45;15.35;;;7.93;;
34876;SDS011;21086;44.780;17.194;2024-03-25T06:43:11;16.00;;;8.40;;
34876;SDS011;21086;44.780;17.194;2024-03-25T06:45:37;11.70;;;6.57;;
34876;SDS011;21086;44.780;17.194;2024-03-25T06:48:03;15.75;;;7.35;;
34876;SDS011;21086;44.780;17.194;2024-03-25T06:50:29;15.10;;;7.55;;
34876;SDS011;21086;44.780;17.194;2024-03-25T06:52:55;12.23;;;6.43;;
34876;SDS011;21086;44.780;17.194;2024-03-25T06:55:21;5.80;;;2.30;;
34876;SDS011;21086;44.780;17.194;2024-03-25T06:57:52;13.35;;;6.15;;
34876;SDS011;21086;44.780;17.194;2024-03-25T07:00:19;10.40;;;5.22;;
34876;SDS011;21086;44.780;17.194;2024-03-25T07:02:50;10.75;;;4.95;;
34876;SDS011;21086;44.780;17.194;2024-03-25T07:05:16;10.25;;;4.93;;
34876;SDS011;21086;44.780;17.194;2024-03-25T07:07:42;8.88;;;4.70;;
34876;SDS011;21086;44.780;17.194;2024-03-25T07:10:08;6.85;;;3.92;;
34876;SDS011;21086;44.780;17.194;2024-03-25T07:12:34;9.63;;;4.85;;
34876;SDS011;21086;44.780;17.194;2024-03-25T07:15:00;9.45;;;4.72;;
34876;SDS011;21086;44.780;17.194;2024-03-25T07:17:26;10.50;;;4.60;;
34876;SDS011;21086;44.780;17.194;2024-03-25T07:19:52;8.77;;;4.55;;
34876;SDS011;21086;44.780;17.194;2024-03-25T07:22:18;7.53;;;3.50;;
34876;SDS011;21086;44.780;17.194;2024-03-25T07:24:44;12.88;;;4.45;;
34876;SDS011;21086;44.780;17.194;2024-03-25T07:27:10;12.88;;;5.30;;
34876;SDS011;21086;44.780;17.194;2024-03-25T07:29:36;8.07;;;4.85;;
34876;SDS011;21086;44.780;17.194;2024-03-25T07:32:03;11.13;;;4.80;;
34876;SDS011;21086;44.780;17.194;2024-03-25T07:34:29;12.23;;;5.05;;
34876;SDS011;21086;44.780;17.194;2024-03-25T07:36:56;9.77;;;4.93;;
34876;SDS011;21086;44.780;17.194;2024-03-25T07:39:22;7.90;;;4.65;;
34876;SDS011;21086;44.780;17.194;2024-03-25T07:41:49;11.50;;;4.70;;
34876;SDS011;21086;44.780;17.194;2024-03-25T07:44:16;7.40;;;4.22;;
34876;SDS011;21086;44.780;17.194;2024-03-25T07:46:42;10.45;;;4.18;;
34876;SDS011;21086;44.780;17.194;2024-03-25T07:49:08;7.80;;;4.20;;
34876;SDS011;21086;44.780;17.194;2024-03-25T07:51:33;6.93;;;4.20;;
34876;SDS011;21086;44.780;17.194;2024-03-25T07:54:01;6.68;;;3.72;;
34876;SDS011;21086;44.780;17.194;2024-03-25T07:56:29;5.32;;;3.40;;
34876;SDS011;21086;44.780;17.194;2024-03-25T07:58:58;8.20;;;3.40;;
34876;SDS011;21086;44.780;17.194;2024-03-25T08:01:25;5.35;;;3.30;;
34876;SDS011;21086;44.780;17.194;2024-03-25T08:03:51;6.63;;;3.67;;
34876;SDS011;21086;44.780;17.194;2024-03-25T08:06:17;7.18;;;3.20;;
34876;SDS011;21086;44.780;17.194;2024-03-25T08:08:43;5.65;;;3.13;;
34876;SDS011;21086;44.780;17.194;2024-03-25T08:11:09;4.57;;;2.83;;
34876;SDS011;21086;44.780;17.194;2024-03-25T08:13:35;5.72;;;3.35;;
34876;SDS011;21086;44.780;17.194;2024-03-25T08:16:01;4.47;;;1.58;;
34876;SDS011;21086;44.780;17.194;2024-03-25T08:18:27;2.97;;;1.58;;
34876;SDS011;21086;44.780;17.194;2024-03-25T08:20:54;2.08;;;1.40;;
34876;SDS011;21086;44.780;17.194;2024-03-25T08:23:20;3.63;;;1.63;;
34876;SDS011;21086;44.780;17.194;2024-03-25T08:25:46;2.33;;;1.20;;
34876;SDS011;21086;44.780;17.194;2024-03-25T08:28:12;2.13;;;1.30;;
34876;SDS011;21086;44.780;17.194;2024-03-25T08:30:38;2.03;;;1.17;;
34876;SDS011;21086;44.780;17.194;2024-03-25T08:33:04;1.80;;;1.13;;
34876;SDS011;21086;44.780;17.194;2024-03-25T08:35:30;1.80;;;1.20;;
34876;SDS011;21086;44.780;17.194;2024-03-25T08:37:56;3.65;;;1.10;;
34876;SDS011;21086;44.780;17.194;2024-03-25T08:40:21;3.63;;;1.55;;
34876;SDS011;21086;44.780;17.194;2024-03-25T08:42:47;2.58;;;0.82;;
34876;SDS011;21086;44.780;17.194;2024-03-25T08:45:13;2.92;;;1.20;;
34876;SDS011;21086;44.780;17.194;2024-03-25T08:47:39;2.42;;;1.42;;
34876;SDS011;21086;44.780;17.194;2024-03-25T08:50:07;5.25;;;1.80;;
34876;SDS011;21086;44.780;17.194;2024-03-25T08:52:34;1.98;;;0.95;;
34876;SDS011;21086;44.780;17.194;2024-03-25T08:55:00;2.20;;;1.00;;
34876;SDS011;21086;44.780;17.194;2024-03-25T08:57:26;1.45;;;0.88;;
34876;SDS011;21086;44.780;17.194;2024-03-25T08:59:51;2.33;;;0.77;;
34876;SDS011;21086;44.780;17.194;2024-03-25T09:02:17;1.23;;;0.65;;
34876;SDS011;21086;44.780;17.194;2024-03-25T09:04:43;0.38;;;0.20;;
34876;SDS011;21086;44.780;17.194;2024-03-25T09:07:09;0.82;;;0.50;;
34876;SDS011;21086;44.780;17.194;2024-03-25T09:09:35;1.42;;;0.50;;
34876;SDS011;21086;44.780;17.194;2024-03-25T09:12:19;2.70;;;0.70;;
34876;SDS011;21086;44.780;17.194;2024-03-25T09:14:45;1.27;;;0.45;;
34876;SDS011;21086;44.780;17.194;2024-03-25T09:17:11;1.00;;;0.57;;
34876;SDS011;21086;44.780;17.194;2024-03-25T09:19:38;1.27;;;0.60;;
34876;SDS011;21086;44.780;17.194;2024-03-25T09:22:03;1.48;;;0.85;;
34876;SDS011;21086;44.780;17.194;2024-03-25T09:24:29;0.82;;;0.40;;
34876;SDS011;21086;44.780;17.194;2024-03-25T09:26:55;0.77;;;0.40;;
34876;SDS011;21086;44.780;17.194;2024-03-25T09:29:21;1.85;;;0.20;;
34876;SDS011;21086;44.780;17.194;2024-03-25T09:31:47;0.10;;;0.10;;
34876;SDS011;21086;44.780;17.194;2024-03-25T09:34:13;1.08;;;0.30;;
34876;SDS011;21086;44.780;17.194;2024-03-25T09:36:39;0.75;;;0.40;;
34876;SDS011;21086;44.780;17.194;2024-03-25T09:39:05;1.20;;;0.63;;
34876;SDS011;21086;44.780;17.194;2024-03-25T09:41:32;1.30;;;0.57;;
34876;SDS011;21086;44.780;17.194;2024-03-25T09:44:01;2.22;;;0.65;;
34876;SDS011;21086;44.780;17.194;2024-03-25T09:46:31;1.77;;;0.90;;
34876;SDS011;21086;44.780;17.194;2024-03-25T09:48:58;1.23;;;0.65;;
34876;SDS011;21086;44.780;17.194;2024-03-25T09:51:25;2.38;;;0.80;;
34876;SDS011;21086;44.780;17.194;2024-03-25T09:53:51;3.97;;;2.15;;
34876;SDS011;21086;44.780;17.194;2024-03-25T09:56:17;2.25;;;1.13;;
34876;SDS011;21086;44.780;17.194;2024-03-25T09:58:43;2.80;;;1.20;;
34876;SDS011;21086;44.780;17.194;2024-03-25T10:01:10;4.18;;;1.80;;
34876;SDS011;21086;44.780;17.194;2024-03-25T10:03:36;1.67;;;0.90;;
34876;SDS011;21086;44.780;17.194;2024-03-25T10:06:02;1.10;;;0.80;;
34876;SDS011;21086;44.780;17.194;2024-03-25T10:08:28;1.00;;;0.57;;
34876;SDS011;21086;44.780;17.194;2024-03-25T10:10:57;4.05;;;1.55;;
34876;SDS011;21086;44.780;17.194;2024-03-25T10:13:26;1.67;;;1.00;;
34876;SDS011;21086;44.780;17.194;2024-03-25T10:15:52;1.02;;;0.50;;
34876;SDS011;21086;44.780;17.194;2024-03-25T10:18:17;1.55;;;0.70;;
34876;SDS011;21086;44.780;17.194;2024-03-25T10:20:53;1.50;;;0.68;;
34876;SDS011;21086;44.780;17.194;2024-03-25T10:23:28;2.47;;;1.15;;
34876;SDS011;21086;44.780;17.194;2024-03-25T10:25:54;2.28;;;1.30;;
34876;SDS011;21086;44.780;17.194;2024-03-25T10:28:20;1.35;;;0.68;;
34876;SDS011;21086;44.780;17.194;2024-03-25T10:30:46;1.83;;;0.80;;
34876;SDS011;21086;44.780;17.194;2024-03-25T10:33:13;0.90;;;0.50;;
34876;SDS011;21086;44.780;17.194;2024-03-25T10:35:40;1.15;;;0.70;;
34876;SDS011;21086;44.780;17.194;2024-03-25T10:38:09;2.20;;;0.80;;
34876;SDS011;21086;44.780;17.194;2024-03-25T10:40:37;1.77;;;1.10;;
34876;SDS011;21086;44.780;17.194;2024-03-25T10:43:05;2.17;;;1.10;;
34876;SDS011;21086;44.780;17.194;2024-03-25T10:45:45;3.70;;;1.00;;
34876;SDS011;21086;44.780;17.194;2024-03-25T10:48:19;1.83;;;0.75;;
34876;SDS011;21086;44.780;17.194;2024-03-25T10:50:51;3.13;;;0.90;;
34876;SDS011;21086;44.780;17.194;2024-03-25T10:53:18;1.40;;;0.90;;
34876;SDS011;21086;44.780;17.194;2024-03-25T10:55:50;2.47;;;1.20;;
34876;SDS011;21086;44.780;17.194;2024-03-25T10:58:18;3.13;;;1.20;;
34876;SDS011;21086;44.780;17.194;2024-03-25T11:00:50;3.55;;;1.58;;
34876;SDS011;21086;44.780;17.194;2024-03-25T11:03:20;2.20;;;1.08;;
34876;SDS011;21086;44.780;17.194;2024-03-25T11:05:46;1.88;;;0.90;;
34876;SDS011;21086;44.780;17.194;2024-03-25T11:08:13;3.00;;;1.38;;
34876;SDS011;21086;44.780;17.194;2024-03-25T11:10:43;2.90;;;1.63;;
34876;SDS011;21086;44.780;17.194;2024-03-25T11:13:17;3.47;;;1.88;;
34876;SDS011;21086;44.780;17.194;2024-03-25T11:15:45;2.20;;;1.20;;
34876;SDS011;21086;44.780;17.194;2024-03-25T11:18:13;1.65;;;1.00;;
34876;SDS011;21086;44.780;17.194;2024-03-25T11:20:40;2.60;;;1.33;;
34876;SDS011;21086;44.780;17.194;2024-03-25T11:23:09;2.20;;;1.33;;
34876;SDS011;21086;44.780;17.194;2024-03-25T11:25:36;2.60;;;1.40;;
34876;SDS011;21086;44.780;17.194;2024-03-25T11:28:03;3.78;;;0.82;;
34876;SDS011;21086;44.780;17.194;2024-03-25T11:30:30;0.73;;;0.40;;
34876;SDS011;21086;44.780;17.194;2024-03-25T11:32:57;3.38;;;0.73;;
34876;SDS011;21086;44.780;17.194;2024-03-25T11:35:26;3.63;;;1.40;;
34876;SDS011;21086;44.780;17.194;2024-03-25T11:37:53;4.70;;;1.83;;
34876;SDS011;21086;44.780;17.194;2024-03-25T11:40:19;3.42;;;1.27;;
34876;SDS011;21086;44.780;17.194;2024-03-25T11:42:45;4.68;;;1.60;;
34876;SDS011;21086;44.780;17.194;2024-03-25T11:45:19;3.13;;;1.00;;
34876;SDS011;21086;44.780;17.194;2024-03-25T11:47:46;1.90;;;0.75;;
34876;SDS011;21086;44.780;17.194;2024-03-25T11:50:14;2.70;;;1.60;;
34876;SDS011;21086;44.780;17.194;2024-03-25T11:52:41;2.55;;;0.70;;
34876;SDS011;21086;44.780;17.194;2024-03-25T11:55:08;2.92;;;1.15;;
34876;SDS011;21086;44.780;17.194;2024-03-25T11:57:35;1.70;;;1.05;;
34876;SDS011;21086;44.780;17.194;2024-03-25T12:00:02;1.83;;;0.90;;
34876;SDS011;21086;44.780;17.194;2024-03-25T12:02:31;1.92;;;1.00;;
34876;SDS011;21086;44.780;17.194;2024-03-25T12:04:57;2.85;;;1.30;;
34876;SDS011;21086;44.780;17.194;2024-03-25T12:07:23;4.28;;;1.90;;
34876;SDS011;21086;44.780;17.194;2024-03-25T12:09:49;2.17;;;1.10;;
34876;SDS011;21086;44.780;17.194;2024-03-25T12:12:34;2.83;;;1.45;;
34876;SDS011;21086;44.780;17.194;2024-03-25T12:15:00;0.80;;;0.40;;
34876;SDS011;21086;44.780;17.194;2024-03-25T12:17:28;2.55;;;0.70;;
34876;SDS011;21086;44.780;17.194;2024-03-25T12:22:31;3.25;;;1.20;;
34876;SDS011;21086;44.780;17.194;2024-03-25T12:24:58;1.30;;;0.80;;
34876;SDS011;21086;44.780;17.194;2024-03-25T12:27:25;1.02;;;0.70;;
34876;SDS011;21086;44.780;17.194;2024-03-25T12:32:30;1.52;;;1.00;;
34876;SDS011;21086;44.780;17.194;2024-03-25T12:34:59;4.72;;;1.10;;
34876;SDS011;21086;44.780;17.194;2024-03-25T12:37:26;1.02;;;0.57;;
34876;SDS011;21086;44.780;17.194;2024-03-25T12:39:52;0.55;;;0.32;;
34876;SDS011;21086;44.780;17.194;2024-03-25T12:42:18;0.98;;;0.50;;
34876;SDS011;21086;44.780;17.194;2024-03-25T12:44:45;6.05;;;1.58;;
34876;SDS011;21086;44.780;17.194;2024-03-25T12:47:11;1.17;;;0.80;;
34876;SDS011;21086;44.780;17.194;2024-03-25T12:49:37;1.00;;;0.57;;
34876;SDS011;21086;44.780;17.194;2024-03-25T12:52:06;1.13;;;0.40;;
34876;SDS011;21086;44.780;17.194;2024-03-25T12:54:32;1.27;;;0.35;;
34876;SDS011;21086;44.780;17.194;2024-03-25T12:56:58;0.43;;;0.25;;
34876;SDS011;21086;44.780;17.194;2024-03-25T12:59:24;0.98;;;0.50;;
34876;SDS011;21086;44.780;17.194;2024-03-25T13:01:50;0.30;;;0.30;;
34876;SDS011;21086;44.780;17.194;2024-03-25T13:04:17;0.65;;;0.30;;
34876;SDS011;21086;44.780;17.194;2024-03-25T13:06:43;0.43;;;0.30;;
34876;SDS011;21086;44.780;17.194;2024-03-25T13:09:09;0.50;;;0.35;;
34876;SDS011;21086;44.780;17.194;2024-03-25T13:11:35;0.60;;;0.40;;
34876;SDS011;21086;44.780;17.194;2024-03-25T13:14:02;0.77;;;0.35;;
34876;SDS011;21086;44.780;17.194;2024-03-25T13:16:32;1.25;;;0.40;;
34876;SDS011;21086;44.780;17.194;2024-03-25T13:18:58;0.70;;;0.30;;
34876;SDS011;21086;44.780;17.194;2024-03-25T13:21:25;1.15;;;0.50;;
34876;SDS011;21086;44.780;17.194;2024-03-25T13:23:51;1.17;;;0.43;;
34876;SDS011;21086;44.780;17.194;2024-03-25T13:26:17;0.50;;;0.40;;
34876;SDS011;21086;44.780;17.194;2024-03-25T13:28:43;1.00;;;0.40;;
34876;SDS011;21086;44.780;17.194;2024-03-25T13:31:10;0.95;;;0.40;;
34876;SDS011;21086;44.780;17.194;2024-03-25T13:33:38;1.10;;;0.50;;
34876;SDS011;21086;44.780;17.194;2024-03-25T13:36:05;0.40;;;0.30;;
34876;SDS011;21086;44.780;17.194;2024-03-25T13:38:31;0.90;;;0.52;;
34876;SDS011;21086;44.780;17.194;2024-03-25T13:41:01;2.45;;;0.88;;
34876;SDS011;21086;44.780;17.194;2024-03-25T13:43:28;3.50;;;1.05;;
34876;SDS011;21086;44.780;17.194;2024-03-25T13:45:54;1.92;;;1.20;;
34876;SDS011;21086;44.780;17.194;2024-03-25T13:48:20;1.25;;;0.75;;
34876;SDS011;21086;44.780;17.194;2024-03-25T13:50:46;2.65;;;1.40;;
34876;SDS011;21086;44.780;17.194;2024-03-25T13:53:13;4.55;;;1.40;;
34876;SDS011;21086;44.780;17.194;2024-03-25T13:55:39;3.72;;;2.15;;
34876;SDS011;21086;44.780;17.194;2024-03-25T13:58:05;4.05;;;1.10;;
34876;SDS011;21086;44.780;17.194;2024-03-25T14:00:33;1.88;;;1.02;;
34876;SDS011;21086;44.780;17.194;2024-03-25T14:03:01;1.75;;;0.70;;
34876;SDS011;21086;44.780;17.194;2024-03-25T14:05:28;2.17;;;1.50;;
34876;SDS011;21086;44.780;17.194;2024-03-25T14:07:54;2.60;;;1.42;;
34876;SDS011;21086;44.780;17.194;2024-03-25T14:10:21;5.88;;;2.15;;
34876;SDS011;21086;44.780;17.194;2024-03-25T14:12:47;5.22;;;1.80;;
34876;SDS011;21086;44.780;17.194;2024-03-25T14:15:14;3.15;;;1.58;;
34876;SDS011;21086;44.780;17.194;2024-03-25T14:17:40;5.68;;;1.00;;
34876;SDS011;21086;44.780;17.194;2024-03-25T14:20:06;2.25;;;1.00;;
34876;SDS011;21086;44.780;17.194;2024-03-25T14:22:34;2.22;;;1.45;;
34876;SDS011;21086;44.780;17.194;2024-03-25T14:24:59;2.85;;;1.80;;
34876;SDS011;21086;44.780;17.194;2024-03-25T14:27:26;2.13;;;1.35;;
34876;SDS011;21086;44.780;17.194;2024-03-25T14:29:52;2.35;;;1.45;;
34876;SDS011;21086;44.780;17.194;2024-03-25T14:32:18;3.00;;;1.52;;
34876;SDS011;21086;44.780;17.194;2024-03-25T14:34:45;2.88;;;1.13;;